Time;durP1;ratioP1;P1;durP2;ratioP2;P2;SDS_P1;SDS_P2;PMS_P1;PMS_P2;Temp;Humidity;BMP_temperature;BMP_pressure;BME280_temperature;BME280_humidity;BME280_pressure;Samples;Min_cycle;Max_cycle;Signal;HPM_P1;HPM_P2
2022/07/03 00:01:53;;;;;;;1.98;1.27;;;;;;;-145.69;100.00;71294.94;5052797;28;20214;-80
2022/07/03 00:04:20;;;;;;;2.45;1.40;;;;;;;-145.69;100.00;71298.94;5052705;28;20231;-79
2022/07/03 00:06:47;;;;;;;2.13;1.55;;;;;;;-145.69;100.00;71302.91;5052365;28;20249;-80
2022/07/03 00:09:13;;;;;;;1.77;1.30;;;;;;;-145.69;100.00;71304.91;5052771;28;20203;-79
2022/07/03 00:11:40;;;;;;;4.88;1.40;;;;;;;-145.69;100.00;71318.81;5052578;28;20658;-80
2022/07/03 00:14:08;;;;;;;3.88;1.60;;;;;;;-145.69;100.00;71314.84;5052878;28;20210;-80
2022/07/03 00:16:34;;;;;;;4.35;1.40;;;;;;;-145.69;100.00;71330.75;5052780;28;20200;-80
2022/07/03 00:19:01;;;;;;;3.50;1.35;;;;;;;-145.69;100.00;71326.78;5052812;28;20539;-80
2022/07/03 00:21:30;;;;;;;1.95;1.30;;;;;;;-145.69;100.00;71326.78;5052481;28;20231;-80
2022/07/03 00:24:03;;;;;;;4.93;1.88;;;;;;;-145.69;100.00;71326.78;5052407;28;20325;-80
2022/07/03 00:26:33;;;;;;;6.80;2.70;;;;;;;-145.69;100.00;71322.81;5052795;28;20226;-79
2022/07/03 00:29:01;;;;;;;3.88;1.70;;;;;;;-145.69;100.00;71334.75;5052934;28;20195;-80
2022/07/03 00:31:30;;;;;;;7.00;2.47;;;;;;;-145.69;100.00;71350.66;5052490;28;20211;-80
2022/07/03 00:33:58;;;;;;;7.35;3.17;;;;;;;-145.69;100.00;71352.66;5052469;28;20242;-79
2022/07/03 00:36:27;;;;;;;5.18;2.40;;;;;;;-145.69;100.00;71358.63;5052536;28;20294;-80
2022/07/03 00:38:53;;;;;;;8.05;2.10;;;;;;;-145.69;100.00;71364.59;5052354;28;20196;-80
2022/07/03 00:41:29;;;;;;;3.08;1.85;;;;;;;-145.69;100.00;71378.50;5052437;28;20662;-79
2022/07/03 00:43:56;;;;;;;5.03;2.22;;;;;;;-145.69;100.00;71384.47;5052306;28;20296;-79
2022/07/03 00:46:24;;;;;;;2.97;1.50;;;;;;;-145.69;100.00;71398.41;5052332;28;20773;-81
2022/07/03 00:48:54;;;;;;;4.20;1.85;;;;;;;-145.69;100.00;71398.41;5052252;28;20586;-79
2022/07/03 00:51:23;;;;;;;4.05;1.50;;;;;;;-145.69;100.00;71410.34;5052274;28;20253;-79
2022/07/03 00:53:52;;;;;;;1.48;1.30;;;;;;;-145.69;100.00;71406.38;5052497;28;20203;-79
2022/07/03 00:56:23;;;;;;;3.42;1.50;;;;;;;-145.69;100.00;71406.38;5052444;28;20200;-79
2022/07/03 00:58:52;;;;;;;3.30;1.50;;;;;;;-145.69;100.00;71402.41;5054785;28;20203;-80
2022/07/03 01:01:19;;;;;;;5.97;1.77;;;;;;;-145.69;100.00;71406.38;5052183;28;20210;-79
2022/07/03 01:03:48;;;;;;;2.05;1.50;;;;;;;-145.69;100.00;71416.31;5052240;28;20224;-80
2022/07/03 01:06:17;;;;;;;1.30;1.20;;;;;;;-145.69;100.00;71438.22;5052281;28;20203;-79
2022/07/03 01:08:46;;;;;;;6.78;1.40;;;;;;;-145.69;100.00;71430.25;5052372;28;20230;-77
2022/07/03 01:11:21;;;;;;;1.35;1.25;;;;;;;-145.69;100.00;71438.22;5052210;28;20211;-80
2022/07/03 01:13:59;;;;;;;5.95;1.55;;;;;;;-145.69;100.00;71444.19;5052446;28;20673;-81
2022/07/03 01:16:31;;;;;;;3.75;1.38;;;;;;;-145.69;100.00;71438.22;5052266;28;20195;-80
2022/07/03 01:19:05;;;;;;;1.77;1.50;;;;;;;-145.69;100.00;71442.19;5052339;28;20287;-80
2022/07/03 01:21:39;;;;;;;4.53;1.50;;;;;;;-145.69;100.00;71454.13;5055797;28;20717;-80
2022/07/03 01:24:39;;;;;;;3.92;1.40;;;;;;;-145.69;100.00;71460.09;5055604;28;20259;-80
2022/07/03 01:27:11;;;;;;;2.28;1.52;;;;;;;-145.69;100.00;71468.06;5055733;28;20238;-79
2022/07/03 01:29:47;;;;;;;4.93;1.50;;;;;;;-145.69;100.00;71478.00;5055636;28;20234;-80
2022/07/03 01:32:15;;;;;;;2.35;1.50;;;;;;;-145.69;100.00;71495.91;5055797;28;20210;-79
2022/07/03 01:34:44;;;;;;;2.10;1.58;;;;;;;-145.69;100.00;71513.81;5055441;28;20206;-80
2022/07/03 01:37:16;;;;;;;6.22;1.88;;;;;;;-145.69;100.00;71515.81;5055434;28;20282;-80
2022/07/03 01:39:47;;;;;;;3.38;1.50;;;;;;;-145.69;100.00;71517.81;5055269;28;20234;-80
2022/07/03 01:42:16;;;;;;;5.07;1.55;;;;;;;-145.69;100.00;71507.84;5055438;28;20200;-80
2022/07/03 01:44:44;;;;;;;2.08;1.40;;;;;;;-145.69;100.00;71499.91;5055103;28;20231;-80
2022/07/03 01:47:10;;;;;;;2.28;1.60;;;;;;;-145.69;100.00;71499.91;5055153;28;20222;-80
2022/07/03 01:49:41;;;;;;;4.40;1.60;;;;;;;-145.69;100.00;71493.94;5055095;28;20227;-81
2022/07/03 01:52:09;;;;;;;3.33;1.60;;;;;;;-145.69;100.00;71489.94;5055007;28;20202;-80
2022/07/03 01:54:37;;;;;;;1.70;1.40;;;;;;;-145.69;100.00;71487.97;5055197;28;20199;-80
2022/07/03 01:57:07;;;;;;;7.38;1.50;;;;;;;-145.69;100.00;71501.88;5054938;28;20212;-81
2022/07/03 01:59:35;;;;;;;2.85;1.50;;;;;;;-145.69;100.00;71503.88;5054980;28;20200;-81
2022/07/03 02:02:10;;;;;;;5.13;1.50;;;;;;;-145.69;100.00;71493.94;5054620;28;20204;-82
2022/07/03 02:04:50;;;;;;;4.85;1.30;;;;;;;-145.69;100.00;71505.88;5054663;28;20231;-81
2022/07/03 02:07:21;;;;;;;1.73;1.48;;;;;;;-145.69;100.00;71515.81;5054916;28;20570;-81
2022/07/03 02:09:56;;;;;;;3.70;1.58;;;;;;;-145.69;100.00;71529.75;5054790;28;20199;-80
2022/07/03 02:12:28;;;;;;;8.20;1.70;;;;;;;-145.69;100.00;71533.72;5054650;28;20213;-81
2022/07/03 02:15:05;;;;;;;2.90;1.67;;;;;;;-145.69;100.00;71525.78;5054885;28;20222;-80
2022/07/03 02:17:38;;;;;;;2.60;1.50;;;;;;;-145.69;100.00;71533.72;5054805;28;20199;-81
2022/07/03 02:20:07;;;;;;;5.07;1.65;;;;;;;-145.69;100.00;71537.72;5054622;28;20290;-81
2022/07/03 02:22:35;;;;;;;2.77;1.63;;;;;;;-145.69;100.00;71551.63;5054653;28;20207;-81
2022/07/03 02:25:05;;;;;;;5.77;1.60;;;;;;;-145.69;100.00;71549.66;5054413;28;20227;-81
2022/07/03 02:27:39;;;;;;;5.40;1.80;;;;;;;-145.69;100.00;71557.59;5054234;28;20283;-80
2022/07/03 02:30:08;;;;;;;2.50;1.67;;;;;;;-145.69;100.00;71561.59;5054269;28;20203;-81
2022/07/03 02:32:38;;;;;;;2.72;1.60;;;;;;;-145.69;100.00;71559.59;5054312;28;20207;-81
2022/07/03 02:35:08;;;;;;;2.90;1.63;;;;;;;-145.69;100.00;71559.59;5054362;28;20204;-81
2022/07/03 02:37:40;;;;;;;2.85;1.75;;;;;;;-145.69;100.00;71559.59;5054214;28;20203;-80
2022/07/03 02:40:10;;;;;;;3.03;1.50;;;;;;;-145.69;100.00;71569.53;5054212;28;20199;-80
2022/07/03 02:42:48;;;;;;;4.85;1.98;;;;;;;-145.69;100.00;71571.53;5054389;28;20211;-80
2022/07/03 02:45:20;;;;;;;4.63;1.77;;;;;;;-145.69;100.00;71575.50;5054133;28;20300;-81
2022/07/03 02:47:52;;;;;;;1.70;1.60;;;;;;;-145.69;100.00;71569.53;5053899;28;20204;-81
2022/07/03 02:50:22;;;;;;;3.30;1.93;;;;;;;-145.69;100.00;71555.63;5053935;28;20206;-79
2022/07/03 02:52:59;;;;;;;2.28;1.30;;;;;;;-145.69;100.00;71553.63;5054551;28;20203;-79
2022/07/03 02:55:43;;;;;;;2.10;1.83;;;;;;;-145.69;100.00;71559.59;5053902;28;20661;-80
2022/07/03 02:58:42;;;;;;;2.10;1.57;;;;;;;-145.69;100.00;71561.59;5053757;28;20234;-80
2022/07/03 03:01:20;;;;;;;2.40;1.50;;;;;;;-145.69;100.00;71577.50;5056258;28;20198;-80
2022/07/03 03:03:54;;;;;;;3.70;1.87;;;;;;;-145.69;100.00;71569.53;5054007;28;20204;-80
2022/07/03 03:06:22;;;;;;;1.97;1.60;;;;;;;-145.69;100.00;71569.53;5053730;28;20298;-80
2022/07/03 03:08:51;;;;;;;4.80;1.77;;;;;;;-145.69;100.00;71557.59;5053584;28;20677;-80
2022/07/03 03:11:25;;;;;;;1.80;1.57;;;;;;;-145.69;100.00;71579.50;5053718;28;20231;-79
2022/07/03 03:13:57;;;;;;;2.73;1.70;;;;;;;-145.69;100.00;71581.50;5053726;28;20206;-80
2022/07/03 03:16:26;;;;;;;2.20;1.70;;;;;;;-145.69;100.00;71585.47;5053525;28;20581;-80
2022/07/03 03:18:53;;;;;;;2.70;1.80;;;;;;;-145.69;100.00;71615.31;5053492;28;20199;-80
2022/07/03 03:21:24;;;;;;;2.67;1.90;;;;;;;-145.69;100.00;71615.31;5053249;28;20203;-80
2022/07/03 03:23:52;;;;;;;5.47;1.90;;;;;;;-145.69;100.00;71631.25;5053293;28;20203;-79
2022/07/03 03:26:23;;;;;;;2.17;1.90;;;;;;;-145.69;100.00;71631.25;5053430;28;20231;-80
2022/07/03 03:28:50;;;;;;;3.05;2.25;;;;;;;-145.69;100.00;71627.25;5053578;28;20204;-81
2022/07/03 03:31:18;;;;;;;1.90;1.70;;;;;;;-145.69;100.00;71623.28;5053208;28;20227;-80
2022/07/03 03:33:48;;;;;;;2.72;2.00;;;;;;;-145.69;100.00;71621.28;5053285;28;20294;-80
2022/07/03 03:36:17;;;;;;;5.43;1.93;;;;;;;-145.69;100.00;71643.19;5053342;28;20203;-80
2022/07/03 03:38:43;;;;;;;3.37;1.87;;;;;;;-145.69;100.00;71649.16;5053269;28;20196;-79
2022/07/03 03:41:10;;;;;;;2.65;2.00;;;;;;;-145.69;100.00;71649.16;5053191;28;20203;-80
2022/07/03 03:43:37;;;;;;;6.67;2.00;;;;;;;-145.69;100.00;71627.25;5052452;28;20294;-80
2022/07/03 03:46:04;;;;;;;1.75;1.52;;;;;;;-145.69;100.00;71601.38;5052887;28;20322;-79
2022/07/03 03:48:33;;;;;;;2.00;1.80;;;;;;;-145.69;100.00;71601.38;5052933;28;20226;-80
2022/07/03 03:51:02;;;;;;;2.27;1.80;;;;;;;-145.69;100.00;71593.44;5052807;28;20669;-80
2022/07/03 03:53:29;;;;;;;1.77;1.50;;;;;;;-145.69;100.00;71591.44;5052912;28;20209;-80
2022/07/03 03:56:01;;;;;;;2.13;1.60;;;;;;;-145.69;100.00;71599.41;5052891;28;20207;-80
2022/07/03 03:58:27;;;;;;;2.13;1.70;;;;;;;-145.69;100.00;71589.44;5052759;28;20597;-79
2022/07/03 04:00:56;;;;;;;3.00;1.93;;;;;;;-145.69;100.00;71601.38;5052627;28;20680;-80
2022/07/03 04:03:23;;;;;;;2.10;1.80;;;;;;;-145.69;100.00;71617.31;5052659;28;20685;-80
2022/07/03 04:05:49;;;;;;;2.13;1.93;;;;;;;-145.69;100.00;71621.28;5052493;28;20233;-80
2022/07/03 04:08:17;;;;;;;3.20;1.88;;;;;;;-145.69;100.00;71617.31;5052785;28;20214;-79
2022/07/03 04:10:44;;;;;;;2.37;1.77;;;;;;;-145.69;100.00;71609.34;5052814;28;20199;-80
2022/07/03 04:13:10;;;;;;;2.17;1.80;;;;;;;-145.69;100.00;71601.38;5052792;28;20215;-80
2022/07/03 04:15:37;;;;;;;4.00;1.60;;;;;;;-145.69;100.00;71599.41;5052938;28;20207;-80
2022/07/03 04:18:04;;;;;;;2.60;1.70;;;;;;;-145.69;100.00;71597.41;5052790;28;20218;-79
2022/07/03 04:20:31;;;;;;;4.20;1.83;;;;;;;-145.69;100.00;71597.41;5052670;28;20226;-80
2022/07/03 04:22:57;;;;;;;3.47;1.70;;;;;;;-145.69;100.00;71577.50;5052684;28;20227;-80
2022/07/03 04:25:26;;;;;;;2.40;1.60;;;;;;;-145.69;100.00;71567.56;5052460;28;20230;-80
2022/07/03 04:27:52;;;;;;;1.63;1.40;;;;;;;-145.69;100.00;71581.50;5052469;28;20202;-80
2022/07/03 04:30:19;;;;;;;1.88;1.67;;;;;;;-145.69;100.00;71583.47;5052706;28;20200;-79
2022/07/03 04:32:46;;;;;;;2.13;1.40;;;;;;;-145.69;100.00;71585.47;5052770;28;20234;-80
2022/07/03 04:35:13;;;;;;;2.97;1.60;;;;;;;-145.69;100.00;71573.53;5052788;28;20199;-80
2022/07/03 04:37:39;;;;;;;2.30;1.80;;;;;;;-145.69;100.00;71569.53;5052740;28;20210;-80
2022/07/03 04:40:08;;;;;;;2.73;1.57;;;;;;;-145.69;100.00;71569.53;5054104;28;20664;-80
2022/07/03 04:42:36;;;;;;;1.98;1.60;;;;;;;-145.69;100.00;71559.59;5054478;28;20282;-80
2022/07/03 04:45:03;;;;;;;1.95;1.75;;;;;;;-145.69;100.00;71553.63;5052814;28;20700;-79
2022/07/03 04:47:30;;;;;;;2.28;1.50;;;;;;;-145.69;100.00;71537.72;5052772;28;20200;-80
2022/07/03 04:49:56;;;;;;;1.90;1.60;;;;;;;-145.69;100.00;71535.72;5052460;28;20209;-80
2022/07/03 04:52:23;;;;;;;2.38;1.40;;;;;;;-145.69;100.00;71533.72;5052373;28;20199;-80
2022/07/03 04:54:50;;;;;;;1.77;1.27;;;;;;;-145.69;100.00;71525.78;5055696;28;20297;-80
2022/07/03 04:57:16;;;;;;;1.63;1.30;;;;;;;-145.69;100.00;71513.81;5058367;28;20535;-80
2022/07/03 04:59:44;;;;;;;1.80;1.60;;;;;;;-145.69;100.00;71491.94;5056300;28;20203;-80
2022/07/03 05:02:10;;;;;;;1.90;1.70;;;;;;;-145.69;100.00;71478.00;5056252;28;20209;-80
2022/07/03 05:04:37;;;;;;;4.45;1.40;;;;;;;-145.69;100.00;71468.06;5056063;28;20203;-80
2022/07/03 05:07:04;;;;;;;6.63;1.52;;;;;;;-145.69;100.00;71454.13;5055895;28;20210;-80
2022/07/03 05:09:30;;;;;;;1.67;1.40;;;;;;;-145.69;100.00;71438.22;5055200;28;20435;-80
2022/07/03 05:11:57;;;;;;;3.65;1.40;;;;;;;-145.69;100.00;71424.28;5055853;28;20206;-80
2022/07/03 05:14:23;;;;;;;2.60;1.50;;;;;;;-145.69;100.00;71408.38;5055810;28;20208;-80
2022/07/03 05:16:51;;;;;;;1.73;1.30;;;;;;;-145.69;100.00;71406.38;5055668;28;20213;-80
2022/07/03 05:19:18;;;;;;;3.95;1.15;;;;;;;-145.69;100.00;71398.41;5056003;28;20207;-80
2022/07/03 05:21:44;;;;;;;2.83;1.17;;;;;;;-145.69;100.00;71386.47;5055726;28;20597;-80
2022/07/03 05:24:11;;;;;;;1.40;1.13;;;;;;;-145.69;100.00;71374.53;5055411;28;20207;-80
2022/07/03 05:26:37;;;;;;;2.95;1.13;;;;;;;-145.69;100.00;71372.53;5055377;28;20719;-80
2022/07/03 05:29:04;;;;;;;1.58;1.15;;;;;;;-145.69;100.00;71356.63;5055590;28;20204;-80
2022/07/03 05:31:30;;;;;;;1.42;1.02;;;;;;;-145.69;100.00;71342.69;5055452;28;20250;-81
2022/07/03 05:33:58;;;;;;;3.08;1.30;;;;;;;-145.69;100.00;71338.72;5055254;28;20749;-80
2022/07/03 05:36:25;;;;;;;2.95;1.45;;;;;;;-145.69;100.00;71326.78;5055353;28;20286;-80
2022/07/03 05:41:41;;;;;;;1.48;1.20;;;;;;;-145.69;100.00;71283.00;5044461;28;20218;-80
2022/07/03 05:44:07;;;;;;;1.75;1.10;;;;;;;-145.69;100.00;71223.31;5055122;28;20435;-81
2022/07/03 05:46:34;;;;;;;1.67;0.95;;;;;;;-145.69;100.00;71119.84;5055164;28;20223;-81
2022/07/03 05:49:02;;;;;;;1.25;1.00;;;;;;;-145.69;100.00;70988.53;5054773;28;20238;-81
2022/07/03 05:51:28;;;;;;;1.25;0.98;;;;;;;-145.69;97.15;70942.75;5055209;28;20200;-81
2022/07/03 05:53:55;;;;;;;0.60;0.60;;;;;;;-145.69;94.58;70857.22;5055377;28;20539;-81
2022/07/03 05:56:21;;;;;;;1.63;0.90;;;;;;;-145.69;89.17;70783.59;5055156;28;20203;-82
2022/07/03 05:58:48;;;;;;;0.70;0.70;;;;;;;-145.69;83.48;70660.25;5055092;28;20203;-82
2022/07/03 06:01:14;;;;;;;1.40;0.60;;;;;;;-145.69;77.64;70550.81;5054952;28;20245;-82
2022/07/03 06:03:41;;;;;;;1.98;0.52;;;;;;;-145.69;70.39;70530.94;5054891;28;20203;-82
2022/07/03 06:06:08;;;;;;;0.40;0.40;;;;;;;-145.69;71.50;70489.16;5054129;28;20724;-82
2022/07/03 06:08:35;;;;;;;0.77;0.43;;;;;;;-145.69;69.81;70439.41;5055036;28;20206;-82
2022/07/03 06:11:01;;;;;;;0.80;0.40;;;;;;;-145.69;66.11;70427.47;5054615;28;20230;-82
2022/07/03 06:13:28;;;;;;;0.60;0.40;;;;;;;-145.69;65.08;70425.50;5054563;28;20206;-82
2022/07/03 06:15:54;;;;;;;0.90;0.43;;;;;;;-145.69;64.26;70423.50;5054629;28;20203;-82
2022/07/03 06:18:21;;;;;;;0.75;0.40;;;;;;;-145.69;66.83;70423.50;5054513;28;20203;-83
2022/07/03 06:20:47;;;;;;;0.50;0.40;;;;;;;-145.69;61.54;70399.63;5054073;28;20458;-82
2022/07/03 06:23:15;;;;;;;1.17;0.50;;;;;;;-145.69;57.57;70421.50;5054704;28;20559;-83
2022/07/03 06:25:42;;;;;;;0.30;0.30;;;;;;;-145.69;55.69;70375.75;5054460;28;20231;-82
2022/07/03 06:28:08;;;;;;;3.90;0.50;;;;;;;-145.69;55.11;70355.88;5054297;28;20646;-82
2022/07/03 06:30:35;;;;;;;3.40;0.50;;;;;;;-145.69;55.77;70347.91;5054372;28;20207;-82
2022/07/03 06:33:01;;;;;;;1.42;0.40;;;;;;;-145.69;53.83;70355.88;5054541;28;20209;-82
2022/07/03 06:35:28;;;;;;;0.85;0.30;;;;;;;-145.69;49.25;70312.09;5054474;28;20199;-83
2022/07/03 06:37:54;;;;;;;1.13;0.50;;;;;;;-145.69;50.30;70306.13;5054294;28;20202;-82
2022/07/03 06:40:23;;;;;;;0.63;0.38;;;;;;;-145.69;51.20;70330.00;5054059;28;20650;-82
2022/07/03 06:42:49;;;;;;;0.50;0.40;;;;;;;-145.69;49.48;70300.16;5054221;28;20231;-82
2022/07/03 06:45:16;;;;;;;2.22;0.40;;;;;;;-145.69;55.44;70316.06;5054024;28;20199;-83
2022/07/03 06:47:43;;;;;;;1.27;0.40;;;;;;;-145.69;56.14;70379.72;5054106;28;20210;-83
2022/07/03 06:50:09;;;;;;;0.95;0.50;;;;;;;-145.69;60.13;70447.38;5054249;28;20650;-83
2022/07/03 06:52:36;;;;;;;1.42;0.50;;;;;;;-145.69;60.89;70483.19;5054265;28;20203;-82
2022/07/03 06:55:03;;;;;;;0.88;0.50;;;;;;;-145.69;58.18;70497.09;5054436;28;20199;-82
2022/07/03 06:57:30;;;;;;;1.38;0.47;;;;;;;-145.69;58.13;70483.19;5054034;28;20203;-82
2022/07/03 06:59:57;;;;;;;4.22;0.60;;;;;;;-145.69;53.99;70483.19;5053763;28;20204;-82
2022/07/03 07:02:23;;;;;;;0.85;0.70;;;;;;;-145.69;52.01;70499.09;5053708;28;20203;-81
2022/07/03 07:04:50;;;;;;;1.17;0.50;;;;;;;-145.69;54.36;70487.16;5053994;28;20688;-82
2022/07/03 07:07:16;;;;;;;0.50;0.50;;;;;;;-145.69;55.29;70501.09;5055802;28;20223;-83
2022/07/03 07:09:43;;;;;;;0.68;0.68;;;;;;;-145.69;52.32;70499.09;5053756;28;20199;-82
2022/07/03 07:12:10;;;;;;;0.52;0.40;;;;;;;-145.69;57.78;70515.00;5053489;28;20539;-81
2022/07/03 07:14:38;;;;;;;0.73;0.50;;;;;;;-145.69;54.71;70528.94;5053715;28;20290;-81
2022/07/03 07:17:05;;;;;;;3.10;0.70;;;;;;;-145.69;53.55;70519.00;5052823;28;20200;-81
2022/07/03 07:19:31;;;;;;;0.80;0.70;;;;;;;-145.69;48.70;70546.84;5053527;28;20661;-81
2022/07/03 07:21:58;;;;;;;2.25;0.60;;;;;;;-145.69;59.87;70552.81;5053456;28;20199;-81
2022/07/03 07:24:24;;;;;;;1.38;0.80;;;;;;;-145.69;48.42;70532.91;5053123;28;20200;-82
2022/07/03 07:26:51;;;;;;;0.65;0.50;;;;;;;-145.69;50.17;70526.94;5053077;28;20238;-82
2022/07/03 07:29:17;;;;;;;0.40;0.40;;;;;;;-145.69;46.16;70517.00;5053233;28;20210;-82
2022/07/03 07:31:45;;;;;;;0.55;0.45;;;;;;;-145.69;45.83;70524.97;5053428;28;20199;-82
2022/07/03 07:34:12;;;;;;;0.50;0.50;;;;;;;-145.69;48.79;70505.06;5053386;28;20207;-81
2022/07/03 07:36:39;;;;;;;0.45;0.40;;;;;;;-145.69;48.18;70497.09;5053367;28;20199;-81
2022/07/03 07:39:06;;;;;;;2.60;0.47;;;;;;;-145.69;55.38;70495.13;5053124;28;20211;-81
2022/07/03 07:41:33;;;;;;;0.50;0.50;;;;;;;-145.69;50.14;70499.09;5052953;28;20574;-82
2022/07/03 07:44:00;;;;;;;3.13;0.80;;;;;;;-145.69;48.21;70499.09;5052988;28;20654;-80
2022/07/03 07:46:26;;;;;;;3.20;0.50;;;;;;;-145.69;53.21;70483.19;5052925;28;20232;-82
2022/07/03 07:48:54;;;;;;;0.88;0.50;;;;;;;-145.69;47.26;70475.22;5052973;28;20227;-82
2022/07/03 07:51:21;;;;;;;0.75;0.30;;;;;;;-145.69;45.13;70538.88;5053105;28;20274;-81
2022/07/03 07:53:47;;;;;;;0.43;0.43;;;;;;;-145.69;43.96;70540.88;5053091;28;20665;-82
2022/07/03 07:56:14;;;;;;;0.52;0.40;;;;;;;-145.69;44.04;70550.81;5052763;28;20208;-83
2022/07/03 07:58:40;;;;;;;1.13;0.40;;;;;;;-145.69;42.64;70538.88;5053118;28;20203;-81
2022/07/03 08:06:36;;;;;;;3.30;0.30;;;;;;;-145.69;46.55;70475.22;5052643;28;20281;-81
2022/07/03 08:09:03;;;;;;;1.17;0.50;;;;;;;-145.69;52.06;70459.31;5052248;28;20435;-82
2022/07/03 08:11:30;;;;;;;1.10;0.40;;;;;;;-145.69;44.58;70459.31;5052721;28;20763;-81
2022/07/03 08:13:56;;;;;;;1.42;0.50;;;;;;;-145.69;43.34;70461.31;5052920;28;20207;-82
2022/07/03 08:16:23;;;;;;;0.80;0.40;;;;;;;-145.69;43.11;70463.28;5052637;28;20207;-81
2022/07/03 08:18:50;;;;;;;1.20;0.50;;;;;;;-145.69;42.00;70473.22;5052610;28;20294;-83
2022/07/03 08:21:16;;;;;;;0.80;0.50;;;;;;;-145.69;42.08;70507.06;5052692;28;20286;-82
2022/07/03 08:23:44;;;;;;;3.15;0.50;;;;;;;-145.69;44.01;70513.03;5052823;28;20203;-82
2022/07/03 08:26:10;;;;;;;1.77;0.40;;;;;;;-145.69;42.05;70499.09;5052528;28;20231;-82
2022/07/03 08:28:37;;;;;;;1.23;0.50;;;;;;;-145.69;40.57;70503.06;5054210;28;20203;-80
2022/07/03 08:31:03;;;;;;;3.17;0.50;;;;;;;-145.69;42.16;70515.00;5056955;28;20227;-81
2022/07/03 08:33:30;;;;;;;1.38;0.40;;;;;;;-145.69;48.81;70467.28;5056607;28;20206;-81
2022/07/03 08:35:57;;;;;;;0.68;0.40;;;;;;;-145.69;44.84;70459.31;5056903;28;20233;-82
2022/07/03 08:38:29;;;;;;;5.47;0.50;;;;;;;-145.69;39.45;70473.22;5056780;28;20210;-82
2022/07/03 08:40:59;;;;;;;1.08;0.40;;;;;;;-145.69;41.02;70489.16;5056967;28;20210;-81
2022/07/03 08:43:25;;;;;;;0.93;0.57;;;;;;;-145.69;41.47;70475.22;5056569;28;20198;-82
2022/07/03 08:45:53;;;;;;;0.47;0.40;;;;;;;-145.69;39.01;70463.28;5056375;28;20280;-82
2022/07/03 08:48:22;;;;;;;0.47;0.45;;;;;;;-145.69;40.78;70447.38;5056054;28;20238;-81
2022/07/03 08:50:51;;;;;;;0.32;0.30;;;;;;;-145.69;43.07;70405.59;5056759;28;20207;-82
2022/07/03 08:53:18;;;;;;;2.50;0.47;;;;;;;-145.69;40.44;70449.38;5056560;28;20200;-81
2022/07/03 08:55:45;;;;;;;2.78;0.50;;;;;;;-145.69;40.77;70431.47;5056490;28;20298;-85
2022/07/03 08:58:15;;;;;;;0.98;0.50;;;;;;;-145.69;43.43;70419.53;5056459;28;20662;-84
2022/07/03 09:00:43;;;;;;;0.40;0.40;;;;;;;-145.69;42.56;70431.47;5056039;28;20200;-81
2022/07/03 09:03:11;;;;;;;0.50;0.47;;;;;;;-145.69;44.30;70419.53;5058765;28;20318;-81
2022/07/03 09:05:39;;;;;;;0.60;0.50;;;;;;;-145.69;42.26;70405.59;5056529;28;20206;-82
2022/07/03 09:08:07;;;;;;;2.55;0.50;;;;;;;-145.69;41.54;70355.88;5055928;28;20227;-83
2022/07/03 09:10:34;;;;;;;4.15;0.40;;;;;;;-145.69;38.55;70339.94;5056365;28;20657;-82
2022/07/03 09:13:01;;;;;;;2.05;0.40;;;;;;;-145.69;36.53;70371.78;5055885;28;20654;-82
2022/07/03 09:15:29;;;;;;;0.80;0.40;;;;;;;-145.69;40.31;70359.84;5056007;28;20211;-81
2022/07/03 09:18:04;;;;;;;4.28;0.50;;;;;;;-145.69;37.09;70381.72;5055934;28;20215;-81
2022/07/03 09:20:33;;;;;;;2.20;0.63;;;;;;;-145.69;40.73;70371.78;5055828;28;20195;-83
2022/07/03 09:23:10;;;;;;;1.05;0.40;;;;;;;-145.69;39.13;70345.91;5055817;28;20681;-81
2022/07/03 09:25:36;;;;;;;0.68;0.40;;;;;;;-145.69;41.20;70349.91;5055716;28;20207;-82
2022/07/03 09:28:03;;;;;;;0.47;0.30;;;;;;;-145.69;37.41;70387.69;5055806;28;20226;-82
2022/07/03 09:30:31;;;;;;;1.83;0.50;;;;;;;-145.69;37.17;70385.69;5055726;28;20226;-82
2022/07/03 09:32:58;;;;;;;1.23;0.60;;;;;;;-145.69;42.19;70343.94;5055621;28;20200;-81
2022/07/03 09:35:26;;;;;;;1.60;0.60;;;;;;;-145.69;40.74;70330.00;5055664;28;20200;-81
2022/07/03 09:37:55;;;;;;;0.82;0.40;;;;;;;-145.69;39.59;70339.94;5055448;28;20203;-82
2022/07/03 09:40:23;;;;;;;1.02;0.70;;;;;;;-145.69;39.23;70361.84;5054330;28;20203;-81
2022/07/03 09:43:01;;;;;;;4.93;0.60;;;;;;;-145.69;38.63;70359.84;5055669;28;20203;-82
2022/07/03 09:45:28;;;;;;;1.58;0.50;;;;;;;-145.69;37.73;70349.91;5055417;28;20277;-82
2022/07/03 09:47:56;;;;;;;1.02;0.45;;;;;;;-145.69;38.57;70349.91;5054890;28;20243;-81
2022/07/03 09:50:23;;;;;;;0.45;0.45;;;;;;;-145.69;38.42;70347.91;5055167;28;20294;-82
2022/07/03 09:52:49;;;;;;;2.33;0.70;;;;;;;-145.69;40.72;70308.13;5055104;28;20203;-82
2022/07/03 09:55:18;;;;;;;1.33;0.50;;;;;;;-145.69;37.72;70320.06;5055344;28;20207;-82
2022/07/03 09:57:47;;;;;;;1.55;0.73;;;;;;;-145.69;38.76;70324.03;5055280;28;20602;-84
2022/07/03 10:00:16;;;;;;;2.03;0.50;;;;;;;-145.69;39.51;70312.09;5054994;28;20248;-82
2022/07/03 10:03:00;;;;;;;2.33;0.50;;;;;;;-145.69;39.03;70304.13;5055140;28;20199;-81
2022/07/03 10:05:29;;;;;;;2.28;0.50;;;;;;;-145.69;37.46;70326.03;5054862;28;20282;-81
2022/07/03 10:07:57;;;;;;;2.67;0.68;;;;;;;-145.69;44.36;70300.16;5055060;28;20223;-81
2022/07/03 10:10:25;;;;;;;0.88;0.50;;;;;;;-145.69;39.34;70324.03;5054926;28;20200;-82
2022/07/03 10:12:54;;;;;;;0.55;0.50;;;;;;;-145.69;40.38;70306.13;5054602;28;20199;-81
2022/07/03 10:15:24;;;;;;;0.90;0.60;;;;;;;-145.69;42.60;70302.16;5054504;28;20561;-82
2022/07/03 10:17:52;;;;;;;1.05;0.43;;;;;;;-145.69;45.25;70268.34;5054449;28;20654;-83
2022/07/03 10:20:27;;;;;;;2.53;0.60;;;;;;;-145.69;41.68;70246.44;5054803;28;20211;-80
2022/07/03 10:22:55;;;;;;;1.55;0.65;;;;;;;-145.69;39.50;70236.50;5055094;28;20547;-84
2022/07/03 10:25:22;;;;;;;0.90;0.57;;;;;;;-145.69;44.22;70236.50;5054590;28;20234;-82
2022/07/03 10:27:49;;;;;;;1.58;0.60;;;;;;;-145.69;40.91;70226.56;5054467;28;20715;-82
2022/07/03 10:30:20;;;;;;;7.57;0.57;;;;;;;-145.69;39.04;70216.63;5054581;28;20206;-83
2022/07/03 10:32:48;;;;;;;3.08;0.60;;;;;;;-145.69;40.61;70218.59;5054995;28;20269;-83
2022/07/03 10:35:18;;;;;;;0.93;0.45;;;;;;;-145.69;40.26;70218.59;5055549;28;20202;-81
2022/07/03 10:38:16;;;;;;;1.42;0.60;;;;;;;-145.69;39.45;70196.72;5055102;28;20199;-83
2022/07/03 10:46:23;;;;;;;2.30;0.50;;;;;;;-145.69;38.48;70152.97;5054417;28;20198;-85
2022/07/03 10:49:00;;;;;;;1.35;0.43;;;;;;;-145.69;37.11;70160.91;5054215;28;20257;-85
2022/07/03 10:51:28;;;;;;;1.45;0.70;;;;;;;-145.69;41.82;70168.88;5054265;28;20207;-82
2022/07/03 10:54:17;;;;;;;0.55;0.47;;;;;;;-145.69;39.70;70164.88;5056534;28;20203;-84
2022/07/03 10:57:10;;;;;;;0.98;0.50;;;;;;;-145.69;39.67;70133.06;5054247;28;20218;-82
2022/07/03 10:59:56;;;;;;;1.05;0.30;;;;;;;-145.69;34.96;70148.97;5053975;28;20195;-82
2022/07/03 11:02:24;;;;;;;0.40;0.40;;;;;;;-145.69;35.96;70148.97;5054099;28;20214;-83
2022/07/03 11:05:12;;;;;;;0.88;0.40;;;;;;;-145.69;37.03;70154.94;5054135;28;20207;-81
2022/07/03 11:08:11;;;;;;;2.20;0.40;;;;;;;-145.69;37.11;70156.94;5053629;28;20281;-83
2022/07/03 11:10:41;;;;;;;0.82;0.60;;;;;;;-145.69;36.52;70131.06;5054118;28;20207;-86
2022/07/03 11:13:15;;;;;;;1.30;0.60;;;;;;;-145.69;36.87;70125.09;5053806;28;20203;-84
2022/07/03 11:15:43;;;;;;;2.42;0.35;;;;;;;-145.69;38.01;70109.19;5053618;28;20566;-83
2022/07/03 11:18:14;;;;;;;0.73;0.40;;;;;;;-145.69;38.88;70107.19;5053517;28;20207;-83
2022/07/03 11:21:11;;;;;;;2.65;0.60;;;;;;;-145.69;37.88;70101.25;5053910;28;20199;-81
2022/07/03 11:23:45;;;;;;;2.83;0.40;;;;;;;-145.69;38.36;70093.28;5036720;28;20211;-83
2022/07/03 11:26:23;;;;;;;2.78;0.50;;;;;;;-145.69;40.58;70057.47;5053478;28;20257;-83
2022/07/03 11:28:52;;;;;;;0.55;0.32;;;;;;;-145.69;36.47;70051.50;5053545;28;20235;-83
2022/07/03 11:31:21;;;;;;;0.98;0.32;;;;;;;-145.69;39.73;70039.56;5053446;28;20200;-83
2022/07/03 11:33:49;;;;;;;2.90;0.57;;;;;;;-145.69;40.01;70005.75;5053403;28;20204;-83
2022/07/03 11:36:26;;;;;;;0.30;0.30;;;;;;;-145.69;37.27;69993.81;5053335;28;20207;-82
2022/07/03 11:39:04;;;;;;;3.60;0.50;;;;;;;-145.69;36.61;70023.66;5053439;28;20198;-83